Time;durP1;ratioP1;P1;durP2;ratioP2;P2;SDS_P1;SDS_P2;PMS_P1;PMS_P2;Temp;Humidity;BMP_temperature;BMP_pressure;BME280_temperature;BME280_humidity;BME280_pressure;Samples;Min_cycle;Max_cycle;Signal;HPM_P1;HPM_P2
2021/06/12 00:03:35;;;;;;;12.05;6.63;;;26.00;76.60;;;;;;11913452;28;20054;-74
2021/06/12 00:09:22;;;;;;;8.85;6.15;;;25.90;77.70;;;;;;11915746;28;20092;-74
2021/06/12 00:15:12;;;;;;;11.55;6.57;;;25.80;79.10;;;;;;11914435;28;20050;-75
2021/06/12 00:27:12;;;;;;;9.40;5.63;;;25.60;79.90;;;;;;12345484;22;20052;-80
2021/06/12 00:32:58;;;;;;;8.10;4.90;;;25.50;79.50;;;;;;12033893;28;20166;-81
2021/06/12 00:38:44;;;;;;;8.90;5.03;;;25.50;79.80;;;;;;12023969;28;20045;-75
2021/06/12 00:44:32;;;;;;;9.32;3.92;;;25.40;80.10;;;;;;12008107;28;20045;-74
2021/06/12 00:50:21;;;;;;;5.68;4.15;;;25.30;80.10;;;;;;12000963;28;20541;-75
2021/06/12 00:56:09;;;;;;;6.00;3.00;;;25.30;79.40;;;;;;12011963;28;20048;-74
2021/06/12 01:01:57;;;;;;;5.20;2.78;;;25.30;79.50;;;;;;12016249;28;20057;-75
2021/06/12 01:07:44;;;;;;;5.63;2.60;;;25.30;78.70;;;;;;12013811;28;20044;-75
2021/06/12 01:13:40;;;;;;;3.72;2.50;;;25.30;78.60;;;;;;12015128;28;20052;-75
2021/06/12 01:19:58;;;;;;;3.33;2.20;;;25.30;78.10;;;;;;12014318;28;21053;-73
2021/06/12 07:51:58;;;;;;;5.28;2.10;;;22.80;91.90;;;;;;12198541;27;21434;-80
2021/06/12 07:57:44;;;;;;;4.70;2.60;;;23.10;91.50;;;;;;12135807;28;20437;-80
2021/06/12 08:03:31;;;;;;;7.63;4.07;;;23.30;90.60;;;;;;12132445;28;20058;-81
2021/06/12 08:09:20;;;;;;;7.38;5.38;;;23.60;91.20;;;;;;12129022;28;20056;-81
2021/06/12 08:15:08;;;;;;;8.40;6.07;;;23.70;91.30;;;;;;12127775;27;20055;-81
2021/06/12 08:20:55;;;;;;;10.85;8.13;;;23.80;91.30;;;;;;12138925;27;20056;-81
2021/06/12 08:26:43;;;;;;;16.02;9.88;;;24.20;90.50;;;;;;12156370;27;20036;-81
2021/06/12 08:32:29;;;;;;;13.13;10.70;;;24.20;90.50;;;;;;12177359;27;20437;-80
2021/06/12 08:38:16;;;;;;;13.48;9.85;;;24.20;90.40;;;;;;12185631;27;20386;-80
2021/06/12 08:44:04;;;;;;;15.48;10.13;;;24.60;89.30;;;;;;12172334;27;20464;-80
2021/06/12 08:49:50;;;;;;;18.73;12.20;;;24.50;88.00;;;;;;12190328;27;20066;-79
2021/06/12 08:55:40;;;;;;;20.27;12.93;;;24.60;87.00;;;;;;12184010;27;20055;-80
2021/06/12 09:01:27;;;;;;;16.70;11.73;;;24.50;87.30;;;;;;12142251;27;20086;-80
2021/06/12 09:07:26;;;;;;;16.63;12.15;;;24.40;87.60;;;;;;12128391;27;20059;-74
2021/06/12 09:13:12;;;;;;;14.80;11.05;;;24.30;86.00;;;;;;12128444;27;20108;-75
2021/06/12 09:19:06;;;;;;;16.83;9.75;;;24.40;87.00;;;;;;12094200;27;21123;-75
2021/06/12 09:24:52;;;;;;;;;;;24.50;85.50;;;;;;12138312;27;20048;-75
2021/06/12 09:30:39;;;;;;;15.50;9.98;;;24.70;84.10;;;;;;12133891;27;19939;-73
2021/06/12 09:36:36;;;;;;;17.15;10.63;;;24.80;83.60;;;;;;12119476;27;20051;-75
2021/06/12 09:42:36;;;;;;;13.60;10.38;;;24.80;84.20;;;;;;12144307;27;20070;-80
2021/06/12 09:48:23;;;;;;;20.10;11.15;;;24.50;84.40;;;;;;11991399;27;20439;-81
2021/06/12 09:54:11;;;;;;;14.95;10.48;;;24.30;84.80;;;;;;12002425;28;20515;-80
2021/06/12 09:59:57;;;;;;;19.65;12.98;;;24.40;84.40;;;;;;11986375;28;20121;-81
2021/06/12 10:05:44;;;;;;;22.10;12.98;;;24.60;84.60;;;;;;12005652;28;20475;-81
2021/06/12 10:11:33;;;;;;;20.05;14.27;;;24.60;84.70;;;;;;11974666;28;20511;-81
2021/06/12 10:17:22;;;;;;;17.45;11.98;;;24.50;84.30;;;;;;12030671;28;20109;-82
2021/06/12 10:23:09;;;;;;;21.75;13.23;;;24.50;83.90;;;;;;12035697;28;20130;-81
2021/06/12 10:28:57;;;;;;;25.92;14.40;;;24.60;84.60;;;;;;12024143;28;20084;-80
2021/06/12 10:34:44;;;;;;;22.13;14.25;;;24.70;83.40;;;;;;12020826;28;20051;-82
2021/06/12 10:40:39;;;;;;;23.60;13.50;;;25.00;83.80;;;;;;12033721;28;20053;-81
2021/06/12 10:46:28;;;;;;;22.45;13.43;;;25.20;82.10;;;;;;12026243;28;20044;-80
2021/06/12 10:52:14;;;;;;;22.35;14.02;;;25.50;81.60;;;;;;12035016;28;20107;-79
2021/06/12 10:58:01;;;;;;;24.75;14.55;;;25.40;80.80;;;;;;12048830;28;20045;-81
2021/06/12 11:04:06;;;;;;;21.63;13.65;;;25.60;80.10;;;;;;12053453;28;20052;-79
2021/06/12 11:09:54;;;;;;;20.88;13.65;;;25.60;79.40;;;;;;12009856;28;20071;-79
2021/06/12 11:15:41;;;;;;;22.95;14.07;;;25.40;79.50;;;;;;12033833;28;20062;-80
2021/06/12 11:21:28;;;;;;;21.67;13.88;;;25.50;80.10;;;;;;12048107;28;20055;-82
2021/06/12 11:27:23;;;;;;;25.00;15.25;;;25.40;80.80;;;;;;12032464;28;20045;-80
2021/06/12 11:33:13;;;;;;;24.55;15.30;;;25.90;79.20;;;;;;12028839;28;20053;-81
2021/06/12 11:39:01;;;;;;;25.05;14.73;;;25.90;78.70;;;;;;12001765;28;20049;-81
2021/06/12 11:44:47;;;;;;;27.27;15.20;;;26.00;77.50;;;;;;11987795;28;20055;-81
2021/06/12 11:50:34;;;;;;;25.67;16.13;;;26.20;77.70;;;;;;12010613;28;20071;-79
2021/06/12 11:56:32;;;;;;;22.88;14.93;;;26.20;77.20;;;;;;12013624;28;20049;-81
2021/06/12 12:02:20;;;;;;;26.00;16.42;;;25.90;77.90;;;;;;12016612;28;20055;-81
2021/06/12 12:08:08;;;;;;;24.55;15.70;;;25.50;78.00;;;;;;12018117;28;20056;-79
2021/06/12 12:14:05;;;;;;;23.17;15.05;;;25.60;79.90;;;;;;12030151;28;20159;-81
2021/06/12 12:19:57;;;;;;;24.70;15.80;;;25.60;79.50;;;;;;12040840;28;20519;-81
2021/06/12 12:25:43;;;;;;;25.52;15.15;;;26.00;78.70;;;;;;12032431;28;20048;-80
2021/06/12 12:31:33;;;;;;;23.90;15.57;;;26.00;77.40;;;;;;12050544;28;20059;-80
2021/06/12 12:37:21;;;;;;;25.27;15.25;;;25.70;77.20;;;;;;12061680;28;20060;-80
2021/06/12 12:43:08;;;;;;;20.75;12.93;;;25.30;79.20;;;;;;12045153;28;20059;-81
2021/06/12 12:48:56;;;;;;;18.05;12.30;;;25.40;79.00;;;;;;12047377;28;20553;-80
2021/06/12 12:54:55;;;;;;;16.83;11.63;;;25.60;78.40;;;;;;12051222;28;20580;-80
2021/06/12 13:00:43;;;;;;;18.00;11.65;;;25.50;78.20;;;;;;12054135;28;20067;-80
2021/06/12 13:06:33;;;;;;;15.75;11.25;;;25.50;76.80;;;;;;12040787;28;20052;-79
2021/06/12 13:12:20;;;;;;;15.77;10.25;;;26.00;77.40;;;;;;12053397;28;20052;-81
2021/06/12 13:18:10;;;;;;;15.63;10.90;;;26.50;74.10;;;;;;12050498;28;20052;-81
2021/06/12 13:24:01;;;;;;;16.83;11.30;;;26.70;74.10;;;;;;12049755;28;20063;-80
2021/06/12 13:29:47;;;;;;;15.23;9.77;;;26.80;73.70;;;;;;12048107;28;20067;-80
2021/06/12 13:35:40;;;;;;;15.40;10.25;;;26.80;72.50;;;;;;12043431;28;20056;-79
2021/06/12 13:41:27;;;;;;;16.17;10.47;;;26.70;73.10;;;;;;12046859;28;20056;-81
2021/06/12 13:47:14;;;;;;;15.93;8.60;;;27.20;72.00;;;;;;12038363;28;20113;-80
2021/06/12 13:53:00;;;;;;;11.07;7.78;;;27.30;71.30;;;;;;11989895;28;20064;-80
2021/06/12 13:58:49;;;;;;;13.57;7.80;;;27.10;71.80;;;;;;12000216;28;20049;-78
2021/06/12 14:04:37;;;;;;;11.82;6.10;;;27.30;72.20;;;;;;12001354;28;20048;-80
2021/06/12 14:10:26;;;;;;;13.57;8.50;;;27.80;69.70;;;;;;11991618;28;20060;-80
2021/06/12 14:16:14;;;;;;;9.98;6.85;;;27.50;70.50;;;;;;11985378;28;20041;-79
2021/06/12 14:22:01;;;;;;;9.25;6.43;;;27.80;69.40;;;;;;11993581;28;20083;-83
2021/06/12 14:27:49;;;;;;;10.50;5.35;;;27.70;69.70;;;;;;11961123;28;20085;-81
2021/06/12 14:33:36;;;;;;;9.32;5.03;;;28.00;69.50;;;;;;11985575;28;20049;-82
2021/06/12 14:39:23;;;;;;;7.25;4.57;;;28.10;68.40;;;;;;11984851;28;20053;-82
2021/06/12 14:45:11;;;;;;;6.60;4.18;;;28.20;67.90;;;;;;11978706;28;20104;-82
2021/06/12 14:50:59;;;;;;;5.25;3.08;;;28.20;67.40;;;;;;11976863;28;20064;-81
2021/06/12 14:56:46;;;;;;;3.67;2.72;;;28.10;68.40;;;;;;11970960;28;20087;-82
2021/06/12 15:02:32;;;;;;;3.72;2.72;;;27.80;69.10;;;;;;11973289;28;20479;-82
2021/06/12 15:08:20;;;;;;;3.65;2.28;;;28.10;69.40;;;;;;11993983;28;20071;-86
2021/06/12 15:14:07;;;;;;;4.68;2.50;;;28.80;67.20;;;;;;11997967;28;20048;-82
2021/06/12 15:19:54;;;;;;;2.28;1.80;;;29.20;66.70;;;;;;12001467;28;20045;-82
2021/06/12 15:25:43;;;;;;;3.40;1.70;;;29.40;65.00;;;;;;11991351;28;20156;-80
2021/06/12 15:31:30;;;;;;;3.13;2.28;;;28.80;65.60;;;;;;11996136;28;20060;-81
2021/06/12 15:37:16;;;;;;;3.25;2.20;;;28.70;67.40;;;;;;11993797;28;20060;-77
2021/06/12 15:43:04;;;;;;;3.00;2.42;;;29.40;65.20;;;;;;11993528;28;20057;-76
2021/06/12 15:48:53;;;;;;;4.57;2.30;;;29.30;65.40;;;;;;11990206;28;20049;-76
2021/06/12 15:54:40;;;;;;;2.85;2.13;;;29.60;64.30;;;;;;11981221;28;20064;-76
2021/06/12 16:00:28;;;;;;;3.15;2.70;;;28.70;67.20;;;;;;11979241;28;20478;-74
2021/06/12 16:06:14;;;;;;;4.50;2.20;;;28.10;68.40;;;;;;11948086;28;20431;-78
2021/06/12 16:12:01;;;;;;;2.60;2.40;;;28.30;69.10;;;;;;11971441;28;20558;-82
2021/06/12 16:17:50;;;;;;;6.95;3.83;;;28.20;69.80;;;;;;11995891;28;20510;-80
2021/06/12 16:23:36;;;;;;;5.40;3.20;;;27.70;71.10;;;;;;11985564;28;20056;-79
2021/06/12 16:29:23;;;;;;;4.38;3.92;;;27.10;71.80;;;;;;11986521;28;20056;-80
2021/06/12 16:35:14;;;;;;;5.93;4.03;;;27.00;72.80;;;;;;11994582;28;20410;-80
2021/06/12 16:41:00;;;;;;;8.38;5.50;;;26.80;72.70;;;;;;12003292;28;20064;-80
2021/06/12 16:46:48;;;;;;;9.63;6.38;;;27.40;72.00;;;;;;12004368;28;20072;-79
2021/06/12 16:52:38;;;;;;;8.73;6.57;;;27.80;69.70;;;;;;12003873;28;20397;-81
2021/06/12 16:58:50;;;;;;;8.18;6.97;;;27.90;68.80;;;;;;12049012;28;20454;-80
2021/06/12 17:04:37;;;;;;;9.53;7.57;;;27.50;69.50;;;;;;12010575;28;20053;-78
2021/06/12 17:10:24;;;;;;;10.77;6.68;;;27.70;69.20;;;;;;11987165;28;20052;-80
2021/06/12 17:16:11;;;;;;;7.10;6.40;;;30.30;63.10;;;;;;11985991;28;20239;-80
2021/06/12 17:21:57;;;;;;;8.38;6.70;;;32.90;55.30;;;;;;11975938;28;20056;-80
2021/06/12 17:27:45;;;;;;;7.50;6.80;;;34.40;51.90;;;;;;11993402;28;20045;-80
2021/06/12 17:33:32;;;;;;;9.13;6.40;;;34.70;50.30;;;;;;11959257;28;20045;-79
2021/06/12 17:39:18;;;;;;;6.72;6.05;;;34.70;50.40;;;;;;11993119;28;20102;-77
2021/06/12 17:45:07;;;;;;;6.38;5.78;;;34.40;49.00;;;;;;11990909;28;20380;-76
2021/06/12 17:50:54;;;;;;;5.97;5.38;;;32.80;51.20;;;;;;11985285;28;20048;-77
2021/06/12 17:56:41;;;;;;;6.82;5.30;;;34.40;49.80;;;;;;11958516;28;20057;-77
2021/06/12 18:02:29;;;;;;;6.07;4.55;;;36.50;46.10;;;;;;11952402;28;20131;-76
2021/06/12 18:08:16;;;;;;;4.90;4.50;;;37.20;44.60;;;;;;11971546;28;20064;-76
2021/06/12 18:14:02;;;;;;;5.20;4.40;;;37.90;43.80;;;;;;11967749;28;20053;-76
2021/06/12 18:19:50;;;;;;;4.75;4.25;;;38.10;43.00;;;;;;11975320;28;20137;-75
2021/06/12 18:25:37;;;;;;;4.90;4.40;;;37.70;43.00;;;;;;11976692;28;20051;-78
2021/06/12 18:31:24;;;;;;;6.65;5.95;;;37.40;43.70;;;;;;11994616;28;20060;-76
2021/06/12 18:37:12;;;;;;;4.40;4.00;;;36.70;44.00;;;;;;11968224;28;20057;-77
2021/06/12 18:42:58;;;;;;;6.93;6.20;;;36.10;45.00;;;;;;11967808;28;20059;-76
2021/06/12 18:48:45;;;;;;;7.13;5.10;;;35.70;46.40;;;;;;11974621;28;20057;-76
2021/06/12 18:54:33;;;;;;;5.65;4.90;;;35.80;46.10;;;;;;11974694;28;20057;-76
2021/06/12 19:00:21;;;;;;;5.15;4.65;;;35.90;45.90;;;;;;11976572;28;20060;-76
2021/06/12 19:06:08;;;;;;;5.97;4.40;;;35.60;46.20;;;;;;11972849;28;20052;-77
2021/06/12 19:11:57;;;;;;;5.50;4.90;;;35.10;47.00;;;;;;11980216;28;20045;-77
2021/06/12 19:17:45;;;;;;;8.25;5.82;;;34.40;48.60;;;;;;11992340;28;20045;-76
2021/06/12 19:23:32;;;;;;;6.07;4.90;;;32.40;52.10;;;;;;11983238;28;20543;-77
2021/06/12 19:29:20;;;;;;;7.28;4.85;;;30.60;55.30;;;;;;11976091;28;20049;-77
2021/06/12 19:35:14;;;;;;;6.00;5.40;;;29.20;58.40;;;;;;11916904;28;20527;-76
2021/06/12 19:41:00;;;;;;;13.35;5.55;;;28.30;60.90;;;;;;11982024;28;20060;-75
2021/06/12 19:46:51;;;;;;;5.80;5.10;;;27.80;63.40;;;;;;11990620;28;20061;-76
2021/06/12 19:52:39;;;;;;;7.90;5.93;;;27.30;64.80;;;;;;11978802;28;20136;-77
2021/06/12 19:58:26;;;;;;;6.35;5.43;;;27.00;65.90;;;;;;11974635;28;20052;-75
2021/06/12 20:04:15;;;;;;;10.07;5.30;;;26.60;66.90;;;;;;11967695;28;20060;-75
2021/06/12 20:10:01;;;;;;;6.57;5.35;;;26.30;68.00;;;;;;11958610;28;20055;-76
2021/06/12 20:15:48;;;;;;;6.15;5.07;;;26.20;69.00;;;;;;11953215;28;20114;-76
2021/06/12 20:21:35;;;;;;;11.23;6.05;;;26.00;69.80;;;;;;11955769;28;20049;-75
2021/06/12 20:27:22;;;;;;;20.00;10.32;;;25.90;70.90;;;;;;11963805;28;20041;-76
2021/06/12 20:33:10;;;;;;;20.00;7.15;;;25.80;71.40;;;;;;11947387;28;20409;-74
2021/06/12 20:38:57;;;;;;;15.27;7.40;;;25.70;71.50;;;;;;11956574;28;20054;-74
2021/06/12 20:44:44;;;;;;;14.10;7.55;;;25.70;72.30;;;;;;11964707;28;20104;-74
2021/06/12 20:50:30;;;;;;;14.73;8.27;;;25.70;72.70;;;;;;11963599;28;20427;-74
2021/06/12 20:56:18;;;;;;;10.52;8.35;;;25.60;72.80;;;;;;11987390;28;20049;-77
2021/06/12 21:02:04;;;;;;;11.20;7.97;;;25.50;72.40;;;;;;12003334;28;20045;-78
2021/06/12 21:07:53;;;;;;;12.55;7.68;;;25.50;72.70;;;;;;12009830;28;20048;-78
2021/06/12 21:13:41;;;;;;;15.98;7.68;;;25.40;73.30;;;;;;11974831;28;20550;-78
2021/06/12 21:19:27;;;;;;;12.18;8.02;;;25.40;73.70;;;;;;11979566;28;20059;-79
2021/06/12 21:25:14;;;;;;;9.27;7.53;;;25.40;74.20;;;;;;11970295;28;20494;-79
2021/06/12 21:31:02;;;;;;;9.07;7.32;;;25.30;74.40;;;;;;11984593;28;20053;-78
2021/06/12 21:36:48;;;;;;;9.07;7.80;;;25.20;74.50;;;;;;11973926;28;20405;-79
2021/06/12 21:42:36;;;;;;;10.50;8.48;;;25.20;75.20;;;;;;11974382;28;20060;-80
2021/06/12 21:48:25;;;;;;;11.90;8.07;;;25.10;75.40;;;;;;11975327;28;20057;-79
2021/06/12 21:54:12;;;;;;;8.73;7.07;;;25.00;75.90;;;;;;11968841;28;20053;-78
2021/06/12 21:59:58;;;;;;;8.32;6.53;;;24.90;76.40;;;;;;11967475;28;20041;-75
2021/06/12 22:05:46;;;;;;;8.55;6.63;;;24.60;77.10;;;;;;11965887;28;20458;-75
2021/06/12 22:11:33;;;;;;;9.57;6.68;;;24.60;77.60;;;;;;11959101;28;20066;-75
2021/06/12 22:17:19;;;;;;;9.57;6.95;;;24.50;77.80;;;;;;11958274;28;20123;-76
2021/06/12 22:23:07;;;;;;;9.13;7.03;;;24.40;78.60;;;;;;11959277;28;20049;-75
2021/06/12 22:28:54;;;;;;;8.13;6.05;;;24.30;77.90;;;;;;11954454;28;20084;-76
2021/06/12 22:34:41;;;;;;;7.03;5.55;;;24.20;78.20;;;;;;11957510;28;20049;-78
2021/06/12 22:40:30;;;;;;;7.15;5.55;;;24.30;78.10;;;;;;11963026;28;20056;-80
2021/06/12 22:46:17;;;;;;;11.50;5.75;;;24.20;77.90;;;;;;11964107;28;20621;-80
2021/06/12 22:52:05;;;;;;;9.35;5.97;;;24.10;78.10;;;;;;11965747;28;20057;-79
2021/06/12 22:57:55;;;;;;;13.38;5.53;;;24.10;77.90;;;;;;11975651;28;20083;-79
2021/06/12 23:03:41;;;;;;;9.82;5.45;;;24.00;78.10;;;;;;11943479;28;20061;-79
2021/06/12 23:09:28;;;;;;;7.07;5.28;;;23.90;77.90;;;;;;11958854;28;20045;-76
2021/06/12 23:15:16;;;;;;;9.73;5.35;;;23.80;78.10;;;;;;11965443;28;20061;-76
2021/06/12 23:21:04;;;;;;;7.05;4.75;;;23.70;78.40;;;;;;11940677;28;20073;-74
2021/06/12 23:26:50;;;;;;;9.35;5.40;;;23.70;77.70;;;;;;11955087;28;20064;-75
2021/06/12 23:32:39;;;;;;;7.40;5.00;;;23.70;78.20;;;;;;11957511;28;20052;-75
2021/06/12 23:38:26;;;;;;;9.57;5.35;;;23.70;78.30;;;;;;11942181;28;20045;-79
2021/06/12 23:44:12;;;;;;;6.63;4.82;;;23.70;78.10;;;;;;11967603;28;20452;-79
2021/06/12 23:50:00;;;;;;;10.68;4.43;;;23.70;77.80;;;;;;12000181;28;20061;-79
2021/06/12 23:55:46;;;;;;;4.72;4.13;;;23.60;77.40;;;;;;12017999;28;20049;-79
